This is the latest recevied weather packets stored in our database for station/object KD7CIH. If no packets are shown the sender has not sent any weather packets the latest 10 day(s).
| Time | Temp. | Humidity | Pressure | Rain* | Wind** | Luminosity | Snow |
|---|---|---|---|---|---|---|---|
| 1788523927 | 8.89° C | 53% | 1011.4 hPa | 0 mm | - | - | - |
| 1788523754 | 9.44° C | 51% | 1011.4 hPa | 0 mm | - | - | - |
| 1788523321 | 10.56° C | 47% | 1011.4 hPa | 0 mm | - | - | - |
| 1788523142 | 11.11° C | 44% | 1011.3 hPa | 0 mm | - | - | - |
| 1788522708 | 11.11° C | 43% | 1011.3 hPa | 0 mm | - | - | - |
| 1788522402 | 11.11° C | 44% | 1011.3 hPa | 0 mm | - | - | - |
| 1788522101 | 10.56° C | 46% | 1011.2 hPa | 0 mm | - | - | - |
| 1788521803 | 10.56° C | 47% | 1011.2 hPa | 0 mm | - | - | - |
| 1788521500 | 10.56° C | 47% | 1011.2 hPa | 0 mm | - | - | - |
| 1788521327 | 10.56° C | 48% | 1011.1 hPa | 0 mm | - | - | - |
| 1788521028 | 10.56° C | 46% | 1011.2 hPa | 0 mm | - | - | - |
| 1788520727 | 10.56° C | 46% | 1011.1 hPa | 0 mm | - | - | - |
| 1788520300 | 10.56° C | 45% | 1011.1 hPa | 0 mm | - | - | - |
| 1788519998 | 10.56° C | 46% | 1011.1 hPa | 0 mm | - | - | - |
| 1788519698 | 10.56° C | 47% | 1011 hPa | 0 mm | - | - | - |
| 1788519408 | 10° C | 48% | 1011 hPa | 0 mm | - | - | - |
| 1788519098 | 10.56° C | 47% | 1010.7 hPa | 0 mm | - | - | - |
| 1788518797 | 11.11° C | 46% | 1010.8 hPa | 0 mm | - | - | - |
| 1788518494 | 11.11° C | 45% | 1010.7 hPa | 0 mm | - | - | - |
| 1788518194 | 11.11° C | 47% | 1010.8 hPa | 0 mm | - | - | - |
| 1788518022 | 11.11° C | 46% | 1010.7 hPa | 0 mm | - | - | - |
| 1788517721 | 11.11° C | 46% | 1010.7 hPa | 0 mm | - | - | - |
| 1788517295 | 10.56° C | 46% | 1010.6 hPa | 0 mm | - | - | - |
| 1788517121 | 10.56° C | 47% | 1010.7 hPa | 0 mm | - | - | - |
| 1788516693 | 10.56° C | 47% | 1010.5 hPa | 0 mm | - | - | - |
* Rain latest hour (hover to see other rain measurements)
** Current wind speed in m/s (hover to see current wind gust speed)